createdAt,value
2017-09-10T00:01:12.359Z,1.90
2017-09-10T00:03:40.432Z,1.70
2017-09-10T00:06:09.120Z,1.63
2017-09-10T00:08:37.190Z,2.30
2017-09-10T00:11:05.265Z,1.53
2017-09-10T00:13:33.337Z,1.70
2017-09-10T00:16:01.408Z,1.50
2017-09-10T00:18:29.482Z,1.03
2017-09-10T00:20:57.514Z,1.50
2017-09-10T00:23:25.627Z,1.50
2017-09-10T00:25:53.706Z,1.30
2017-09-10T00:28:21.773Z,1.47
2017-09-10T00:30:49.844Z,1.27
2017-09-10T00:33:17.918Z,1.53
2017-09-10T00:35:45.989Z,1.47
2017-09-10T00:38:14.068Z,1.20
2017-09-10T00:40:42.135Z,1.80
2017-09-10T00:43:10.208Z,1.67
2017-09-10T00:45:38.279Z,1.37
2017-09-10T00:48:06.354Z,1.20
2017-09-10T00:50:34.425Z,1.10
2017-09-10T00:53:02.499Z,1.57
2017-09-10T00:55:30.571Z,1.30
2017-09-10T00:57:58.644Z,1.40
2017-09-10T01:00:26.716Z,1.20
2017-09-10T01:02:54.789Z,1.00
2017-09-10T01:05:22.862Z,1.20
2017-09-10T01:07:50.935Z,1.10
2017-09-10T01:10:19.008Z,1.13
2017-09-10T01:12:47.080Z,1.10
2017-09-10T01:15:15.183Z,1.00
2017-09-10T01:17:43.223Z,1.00
2017-09-10T01:20:11.297Z,1.23
2017-09-10T01:22:39.368Z,1.10
2017-09-10T01:25:08.055Z,1.00
2017-09-10T01:27:36.129Z,1.80
2017-09-10T01:30:04.201Z,1.30
2017-09-10T01:32:32.274Z,1.23
2017-09-10T01:35:00.347Z,1.07
2017-09-10T01:37:28.420Z,1.13
2017-09-10T01:39:57.107Z,1.13
2017-09-10T01:42:25.177Z,1.40
2017-09-10T01:44:53.251Z,1.13
2017-09-10T01:47:21.323Z,1.37
2017-09-10T01:49:49.397Z,1.40
2017-09-10T01:52:17.469Z,0.90
2017-09-10T01:54:46.157Z,1.30
2017-09-10T01:57:14.229Z,1.47
2017-09-10T01:59:42.306Z,1.27
2017-09-10T02:02:10.375Z,1.27
2017-09-10T02:04:38.446Z,1.20
2017-09-10T02:07:06.518Z,1.17
2017-09-10T02:09:34.592Z,1.40
2017-09-10T02:12:02.663Z,1.43
2017-09-10T02:14:30.737Z,1.10
2017-09-10T02:16:58.811Z,1.53
2017-09-10T02:19:26.883Z,1.60
2017-09-10T02:21:55.569Z,1.80
2017-09-10T02:24:23.643Z,1.50
2017-09-10T02:26:51.714Z,1.73
2017-09-10T02:29:19.786Z,1.67
2017-09-10T02:31:47.860Z,1.40
2017-09-10T02:34:16.546Z,1.48
2017-09-10T02:36:44.619Z,1.13
2017-09-10T02:39:12.681Z,1.87
2017-09-10T02:41:40.766Z,1.43
2017-09-10T02:44:08.839Z,1.93
2017-09-10T02:46:36.909Z,1.70
2017-09-10T02:49:05.902Z,1.60
2017-09-10T02:51:33.976Z,1.47
2017-09-10T02:54:02.048Z,1.50
2017-09-10T02:56:30.123Z,1.70
2017-09-10T02:58:58.193Z,1.50
2017-09-10T03:01:26.267Z,1.37
2017-09-10T03:03:54.339Z,1.37
2017-09-10T03:06:22.413Z,1.70
2017-09-10T03:08:51.099Z,1.93
2017-09-10T03:11:19.171Z,1.70
2017-09-10T03:13:47.244Z,1.63
2017-09-10T03:16:15.316Z,2.00
2017-09-10T03:18:43.388Z,1.53
2017-09-10T03:21:11.462Z,1.63
2017-09-10T03:23:39.534Z,2.07
2017-09-10T03:26:07.607Z,1.70
2017-09-10T03:28:35.681Z,1.70
2017-09-10T03:31:03.753Z,2.67
2017-09-10T03:33:31.828Z,1.90
2017-09-10T03:35:59.897Z,1.90
2017-09-10T03:38:27.969Z,1.40
2017-09-10T03:41:00.343Z,2.17
2017-09-10T03:43:28.415Z,1.90
2017-09-10T03:45:57.102Z,1.93
2017-09-10T03:48:25.176Z,1.90
2017-09-10T03:50:53.247Z,1.40
2017-09-10T03:53:21.321Z,2.00
2017-09-10T03:55:49.392Z,1.73
2017-09-10T03:58:17.466Z,1.93
2017-09-10T04:00:45.538Z,2.17
2017-09-10T04:03:13.618Z,2.20
2017-09-10T04:05:41.683Z,2.10
2017-09-10T04:08:09.756Z,2.07
2017-09-10T04:10:37.828Z,2.10
2017-09-10T04:13:05.901Z,1.90
2017-09-10T04:15:33.973Z,2.20
2017-09-10T04:18:02.047Z,2.30
2017-09-10T04:20:30.122Z,2.53
2017-09-10T04:22:58.191Z,2.60
2017-09-10T04:25:26.265Z,2.50
2017-09-10T04:27:54.337Z,1.97
2017-09-10T04:30:22.413Z,2.10
2017-09-10T04:32:50.481Z,2.43
2017-09-10T04:35:18.555Z,1.90
2017-09-10T04:37:47.242Z,2.73
2017-09-10T04:40:15.314Z,2.13
2017-09-10T04:42:43.387Z,2.33
2017-09-10T04:45:11.460Z,2.13
2017-09-10T04:47:39.533Z,1.97
2017-09-10T04:50:07.604Z,1.87
2017-09-10T04:52:35.677Z,2.67
2017-09-10T04:55:03.750Z,2.53
2017-09-10T04:57:31.822Z,2.40
2017-09-10T04:59:59.895Z,2.00
2017-09-10T05:02:27.966Z,2.20
2017-09-10T05:04:56.040Z,2.60
2017-09-10T05:07:24.112Z,2.10
2017-09-10T05:09:52.186Z,2.20
2017-09-10T05:12:20.257Z,1.97
2017-09-10T05:14:48.333Z,2.47
2017-09-10T05:17:16.402Z,2.13
2017-09-10T05:19:44.476Z,2.10
2017-09-10T05:22:12.548Z,2.03
2017-09-10T05:24:40.620Z,1.80
2017-09-10T05:27:08.693Z,1.63
2017-09-10T05:29:36.766Z,2.00
2017-09-10T05:32:04.839Z,2.20
2017-09-10T05:34:32.910Z,2.00
2017-09-10T05:37:00.984Z,1.93
2017-09-10T05:39:29.057Z,2.03
2017-09-10T05:41:57.129Z,1.93
2017-09-10T05:44:25.202Z,1.70
2017-09-10T05:46:53.274Z,2.17
2017-09-10T05:49:21.652Z,1.83
2017-09-10T05:51:49.727Z,1.70
2017-09-10T05:54:17.799Z,1.80
2017-09-10T05:56:45.872Z,2.00
2017-09-10T05:59:13.944Z,2.17
2017-09-10T06:01:42.018Z,1.60
2017-09-10T06:04:10.089Z,1.70
2017-09-10T06:06:38.163Z,1.47
2017-09-10T06:09:06.238Z,1.60
2017-09-10T06:11:34.921Z,1.30
2017-09-10T06:14:02.996Z,2.10
2017-09-10T06:16:31.067Z,1.57
2017-09-10T06:18:59.140Z,1.53
2017-09-10T06:21:27.211Z,1.40
2017-09-10T06:23:55.286Z,1.50
2017-09-10T06:26:23.357Z,1.97
2017-09-10T06:28:52.045Z,1.43
2017-09-10T06:31:20.118Z,1.47
2017-09-10T06:33:48.189Z,1.37
2017-09-10T06:36:16.261Z,1.70
2017-09-10T06:38:44.334Z,1.70
2017-09-10T06:41:12.408Z,1.47
2017-09-10T06:43:40.480Z,1.50
2017-09-10T06:46:08.551Z,1.70
2017-09-10T06:48:36.520Z,1.57
2017-09-10T06:51:04.595Z,1.67
2017-09-10T06:53:32.670Z,1.60
2017-09-10T06:56:00.741Z,1.40
2017-09-10T06:58:28.813Z,1.47
2017-09-10T07:00:56.890Z,1.57
2017-09-10T07:03:24.958Z,1.57
2017-09-10T07:05:53.038Z,1.57
2017-09-10T07:08:21.104Z,1.67
2017-09-10T07:10:49.176Z,1.60
2017-09-10T07:13:17.862Z,1.20
2017-09-10T07:15:45.936Z,1.70
2017-09-10T07:18:14.007Z,1.37
2017-09-10T07:20:42.081Z,1.27
2017-09-10T07:23:10.153Z,1.20
2017-09-10T07:25:38.226Z,1.70
2017-09-10T07:28:08.216Z,1.60
2017-09-10T07:30:36.214Z,1.43
2017-09-10T07:33:04.287Z,1.40
2017-09-10T07:35:32.359Z,1.23
2017-09-10T07:38:00.458Z,1.40
2017-09-10T07:40:29.384Z,1.63
2017-09-10T07:42:59.578Z,1.63
2017-09-10T07:45:27.722Z,1.40
2017-09-10T07:47:55.795Z,1.40
2017-09-10T07:50:23.867Z,1.67
2017-09-10T07:52:51.941Z,1.80
2017-09-10T07:55:20.010Z,1.43
2017-09-10T07:57:48.084Z,1.63
2017-09-10T08:00:16.157Z,1.73
2017-09-10T08:02:44.229Z,1.37
2017-09-10T08:05:12.303Z,1.40
2017-09-10T08:07:40.375Z,1.33
2017-09-10T08:10:08.453Z,1.70
2017-09-10T08:12:36.520Z,1.40
2017-09-10T08:15:04.593Z,1.53
2017-09-10T08:17:32.664Z,1.33
2017-09-10T08:20:00.739Z,1.33
2017-09-10T08:22:28.772Z,1.60
2017-09-10T08:24:56.884Z,1.50
2017-09-10T08:27:24.955Z,1.27
2017-09-10T08:29:53.029Z,1.43
2017-09-10T08:32:21.101Z,1.20
2017-09-10T08:34:49.174Z,1.62
2017-09-10T08:37:17.246Z,1.47
2017-09-10T08:39:45.318Z,1.40
2017-09-10T08:42:13.393Z,1.50
2017-09-10T08:44:41.463Z,1.20
2017-09-10T08:47:09.536Z,1.20
2017-09-10T08:49:37.608Z,1.37
2017-09-10T08:52:05.681Z,1.23
2017-09-10T08:54:34.675Z,1.00
2017-09-10T08:57:02.747Z,1.50
2017-09-10T08:59:31.436Z,1.13
2017-09-10T09:01:59.508Z,1.40
2017-09-10T09:04:27.579Z,1.00
2017-09-10T09:06:55.652Z,1.07
2017-09-10T09:09:23.725Z,1.10
2017-09-10T09:11:52.456Z,1.00
2017-09-10T09:14:20.485Z,1.20
2017-09-10T09:16:48.557Z,1.57
2017-09-10T09:19:16.631Z,1.17
2017-09-10T09:21:44.679Z,1.10
2017-09-10T09:24:12.776Z,1.00
2017-09-10T09:26:40.851Z,1.30
2017-09-10T09:29:08.921Z,1.30
2017-09-10T09:31:36.992Z,1.20
2017-09-10T09:34:04.835Z,1.77
2017-09-10T09:36:33.500Z,1.87
2017-09-10T09:39:01.323Z,2.20
2017-09-10T09:41:29.222Z,2.10
2017-09-10T09:43:57.073Z,1.80
2017-09-10T09:46:24.952Z,2.00
2017-09-10T09:48:52.789Z,1.50
2017-09-10T09:51:21.506Z,2.20
2017-09-10T09:53:49.395Z,1.97
2017-09-10T09:56:17.296Z,2.10
2017-09-10T09:58:45.144Z,7.27
2017-09-10T10:01:13.019Z,3.60
2017-09-10T10:03:40.915Z,4.30
2017-09-10T10:06:08.808Z,1.53
2017-09-10T10:08:36.651Z,1.77
2017-09-10T10:11:04.552Z,1.60
2017-09-10T10:13:32.433Z,1.63
2017-09-10T10:16:00.328Z,2.20
2017-09-10T10:18:28.209Z,1.90
2017-09-10T10:20:56.161Z,1.23
2017-09-10T10:23:23.994Z,1.77
2017-09-10T10:25:51.892Z,1.50
2017-09-10T10:28:19.799Z,1.23
2017-09-10T10:30:47.675Z,1.50
2017-09-10T10:33:15.554Z,1.87
2017-09-10T10:35:43.388Z,1.57
2017-09-10T10:38:11.312Z,1.77
2017-09-10T10:40:40.396Z,1.33
2017-09-10T10:43:08.349Z,1.33
2017-09-10T10:45:36.184Z,1.47
2017-09-10T10:48:04.077Z,1.53
2017-09-10T10:50:31.934Z,1.80
2017-09-10T10:52:59.904Z,1.60
2017-09-10T10:55:27.740Z,1.90
2017-09-10T10:57:55.636Z,1.70
2017-09-10T11:00:23.467Z,2.53
2017-09-10T11:02:51.351Z,1.50
2017-09-10T11:05:19.297Z,2.00
2017-09-10T11:07:47.175Z,1.73
2017-09-10T11:10:15.129Z,1.70
2017-09-10T11:12:43.020Z,1.87
2017-09-10T11:15:10.843Z,1.90
2017-09-10T11:17:38.730Z,1.83
2017-09-10T11:20:06.553Z,1.73
2017-09-10T11:22:34.450Z,1.73
2017-09-10T11:25:02.277Z,1.87
2017-09-10T11:27:30.158Z,1.83
2017-09-10T11:29:57.988Z,1.77
2017-09-10T11:32:25.872Z,2.10
2017-09-10T11:34:53.696Z,2.57
2017-09-10T11:37:21.590Z,2.40
2017-09-10T11:39:49.408Z,2.20
2017-09-10T11:42:17.236Z,2.30
2017-09-10T11:44:45.120Z,2.30
2017-09-10T11:47:12.955Z,2.70
2017-09-10T11:49:40.835Z,2.63
2017-09-10T11:52:08.665Z,2.30
2017-09-10T11:54:36.540Z,2.40
2017-09-10T11:57:04.407Z,2.30
2017-09-10T11:59:32.293Z,2.20
2017-09-10T12:02:00.668Z,2.23
2017-09-10T12:04:29.328Z,2.40
2017-09-10T12:06:57.271Z,2.60
2017-09-10T12:09:25.349Z,2.10
2017-09-10T12:11:53.417Z,2.30
2017-09-10T12:14:21.488Z,1.83
2017-09-10T12:16:49.561Z,1.73
2017-09-10T12:19:17.902Z,2.03
2017-09-10T12:21:46.019Z,2.10
2017-09-10T12:24:14.088Z,1.80
2017-09-10T12:26:42.159Z,1.93
2017-09-10T12:29:10.232Z,1.80
2017-09-10T12:31:38.305Z,1.70
2017-09-10T12:34:06.379Z,2.27
2017-09-10T12:36:34.452Z,1.97
2017-09-10T12:39:02.524Z,1.80
2017-09-10T12:41:30.594Z,1.50
2017-09-10T12:43:58.669Z,1.70
2017-09-10T12:46:26.740Z,1.70
2017-09-10T12:48:54.814Z,1.93
2017-09-10T12:51:22.888Z,1.70
2017-09-10T12:53:51.266Z,1.53
2017-09-10T12:56:19.338Z,1.80
2017-09-10T12:58:47.413Z,1.00
2017-09-10T13:01:15.484Z,1.70
2017-09-10T13:03:43.557Z,2.53
2017-09-10T13:06:11.631Z,1.47
2017-09-10T13:08:39.702Z,1.40
2017-09-10T13:11:08.696Z,1.47
2017-09-10T13:13:36.768Z,2.03
2017-09-10T13:16:04.841Z,1.10
2017-09-10T13:18:32.914Z,1.60
2017-09-10T13:21:00.986Z,1.47
2017-09-10T13:23:29.058Z,1.43
2017-09-10T13:25:57.132Z,1.90
2017-09-10T13:28:25.203Z,1.93
2017-09-10T13:30:53.278Z,1.33
2017-09-10T13:33:21.353Z,1.73
2017-09-10T13:35:49.396Z,1.50
2017-09-10T13:38:17.494Z,1.80
2017-09-10T13:40:46.796Z,1.60
2017-09-10T13:43:15.483Z,2.07
2017-09-10T13:45:43.554Z,2.03
2017-09-10T13:48:11.569Z,1.70
2017-09-10T13:50:39.641Z,2.27
2017-09-10T13:53:12.349Z,2.10
2017-09-10T13:55:40.325Z,1.80
2017-09-10T13:58:08.482Z,2.03
2017-09-10T14:00:36.601Z,2.07
2017-09-10T14:03:04.671Z,1.70
2017-09-10T14:05:32.744Z,1.93
2017-09-10T14:08:00.817Z,2.20
2017-09-10T14:10:28.890Z,2.13
2017-09-10T14:12:57.577Z,2.20
2017-09-10T14:15:25.649Z,2.20
2017-09-10T14:17:53.722Z,1.93
2017-09-10T14:20:22.212Z,2.13
2017-09-10T14:22:50.174Z,2.20
2017-09-10T14:25:17.999Z,5.00
2017-09-10T14:27:45.895Z,3.07
2017-09-10T14:30:13.728Z,2.30
2017-09-10T14:32:41.642Z,2.10
2017-09-10T14:35:09.483Z,2.43
2017-09-10T14:37:37.314Z,2.50
2017-09-10T14:40:05.199Z,2.17
2017-09-10T14:42:33.036Z,2.60
2017-09-10T14:45:00.938Z,2.70
2017-09-10T14:47:28.781Z,4.20
2017-09-10T14:49:56.670Z,2.53
2017-09-10T14:52:24.503Z,2.50
2017-09-10T14:54:53.157Z,3.20
2017-09-10T14:57:20.992Z,2.50
2017-09-10T14:59:48.987Z,2.17
2017-09-10T15:02:16.835Z,2.03
2017-09-10T15:04:44.722Z,2.53
2017-09-10T15:07:12.560Z,2.27
2017-09-10T15:09:40.483Z,1.90
2017-09-10T15:12:08.553Z,2.40
2017-09-10T15:14:36.484Z,2.30
2017-09-10T15:17:04.584Z,2.37
2017-09-10T15:19:32.465Z,2.20
2017-09-10T15:22:00.656Z,2.07
2017-09-10T15:24:28.879Z,2.53
2017-09-10T15:26:56.882Z,2.43
2017-09-10T15:29:24.816Z,2.60
2017-09-10T15:31:52.704Z,2.10
2017-09-10T15:34:20.627Z,1.50
2017-09-10T15:36:48.455Z,2.50
2017-09-10T15:39:16.317Z,6.83
2017-09-10T15:41:44.383Z,2.53
2017-09-10T15:44:12.215Z,2.40
2017-09-10T15:46:40.136Z,1.87
2017-09-10T15:49:07.960Z,2.60
2017-09-10T15:51:35.849Z,2.40
2017-09-10T15:54:03.674Z,2.20
2017-09-10T15:56:31.545Z,2.27
2017-09-10T15:58:59.381Z,2.10
2017-09-10T16:01:27.306Z,1.80
2017-09-10T16:03:55.136Z,2.10
2017-09-10T16:06:23.017Z,2.27
2017-09-10T16:08:50.844Z,1.87
2017-09-10T16:11:19.376Z,2.17
2017-09-10T16:13:47.849Z,2.40
2017-09-10T16:16:15.738Z,2.10
2017-09-10T16:18:43.562Z,1.70
2017-09-10T16:21:11.437Z,2.57
2017-09-10T16:23:39.264Z,1.70
2017-09-10T16:26:07.145Z,2.00
2017-09-10T16:28:36.561Z,2.20
2017-09-10T16:31:04.441Z,2.43
2017-09-10T16:33:32.312Z,2.30
2017-09-10T16:36:00.134Z,1.80
2017-09-10T16:38:28.009Z,2.20
2017-09-10T16:40:55.920Z,2.07
2017-09-10T16:43:24.399Z,2.23
2017-09-10T16:45:54.173Z,2.60
2017-09-10T16:48:22.136Z,2.30
2017-09-10T16:50:49.975Z,2.40
2017-09-10T16:53:17.905Z,2.40
2017-09-10T16:55:46.634Z,4.47
2017-09-10T16:58:14.520Z,7.10
2017-09-10T17:00:42.519Z,5.50
2017-09-10T17:03:10.593Z,4.80
2017-09-10T17:05:38.664Z,5.10
2017-09-10T17:08:06.738Z,5.10
2017-09-10T17:10:34.811Z,4.53
2017-09-10T17:13:02.881Z,4.37
2017-09-10T17:15:30.954Z,4.70
2017-09-10T17:17:59.026Z,5.43
2017-09-10T17:20:27.099Z,4.90
2017-09-10T17:22:55.173Z,5.83
2017-09-10T17:25:23.244Z,5.33
2017-09-10T17:27:51.317Z,5.30
2017-09-10T17:30:19.390Z,5.13
2017-09-10T17:32:47.463Z,4.25
2017-09-10T17:35:15.536Z,4.40
2017-09-10T17:37:43.608Z,4.23
2017-09-10T17:40:11.680Z,4.03
2017-09-10T17:42:39.753Z,3.50
2017-09-10T17:45:08.749Z,3.40
2017-09-10T17:47:36.827Z,3.87
2017-09-10T17:50:05.511Z,4.20
2017-09-10T17:52:33.580Z,4.10
2017-09-10T17:55:01.651Z,4.80
2017-09-10T17:57:29.725Z,4.47
2017-09-10T17:59:57.798Z,4.20
2017-09-10T18:02:25.870Z,4.40
2017-09-10T18:04:53.942Z,4.40
2017-09-10T18:07:22.015Z,4.30
2017-09-10T18:09:50.395Z,4.23
2017-09-10T18:12:18.467Z,3.83
2017-09-10T18:14:46.539Z,3.80
2017-09-10T18:17:14.612Z,3.80
2017-09-10T18:19:42.974Z,3.50
2017-09-10T18:22:11.065Z,3.70
2017-09-10T18:24:39.138Z,2.73
2017-09-10T18:27:07.172Z,2.33
2017-09-10T18:29:35.283Z,3.27
2017-09-10T18:32:03.356Z,2.87
2017-09-10T18:34:31.428Z,2.93
2017-09-10T18:37:00.126Z,2.93
2017-09-10T18:39:28.187Z,3.10
2017-09-10T18:41:56.259Z,2.33
2017-09-10T18:44:24.947Z,2.60
2017-09-10T18:46:53.022Z,2.40
2017-09-10T18:49:21.706Z,2.30
2017-09-10T18:51:49.780Z,2.73
2017-09-10T18:54:19.065Z,2.20
2017-09-10T18:56:49.266Z,2.07
2017-09-10T18:59:19.006Z,2.37
2017-09-10T19:01:49.691Z,1.90
2017-09-10T19:04:19.743Z,2.43
2017-09-10T19:06:50.211Z,1.80
2017-09-10T19:09:20.509Z,2.40
2017-09-10T19:11:51.206Z,2.30
2017-09-10T19:14:21.143Z,2.97
2017-09-10T19:16:51.871Z,2.70
2017-09-10T19:19:21.472Z,3.03
2017-09-10T19:21:49.690Z,2.80
2017-09-10T19:24:17.724Z,2.40
2017-09-10T19:26:47.237Z,3.10
2017-09-10T19:29:15.137Z,2.67
2017-09-10T19:31:43.211Z,2.37
2017-09-10T19:34:11.282Z,1.87
2017-09-10T19:36:39.969Z,2.40
2017-09-10T19:39:08.041Z,2.80
2017-09-10T19:41:36.114Z,2.17
2017-09-10T19:44:05.109Z,2.10
2017-09-10T19:46:33.181Z,2.43
2017-09-10T19:49:01.253Z,1.90
2017-09-10T19:51:29.327Z,2.80
2017-09-10T19:53:57.399Z,3.70
2017-09-10T19:56:25.472Z,3.20
2017-09-10T19:58:53.544Z,3.57
2017-09-10T20:01:21.617Z,2.27
2017-09-10T20:03:49.651Z,2.87
2017-09-10T20:06:17.763Z,2.57
2017-09-10T20:08:45.834Z,2.87
2017-09-10T20:11:13.906Z,2.93
2017-09-10T20:13:41.979Z,2.20
2017-09-10T20:16:10.360Z,1.93
2017-09-10T20:18:38.740Z,2.30
2017-09-10T20:21:09.343Z,2.03
2017-09-10T20:23:37.345Z,1.77
2017-09-10T20:26:05.776Z,1.43
2017-09-10T20:28:33.794Z,1.30
2017-09-10T20:31:02.490Z,1.93
2017-09-10T20:33:30.553Z,2.10
2017-09-10T20:35:58.627Z,1.70
2017-09-10T20:38:27.495Z,1.60
2017-09-10T20:40:56.000Z,1.40
2017-09-10T20:43:24.074Z,1.97
2017-09-10T20:45:52.761Z,1.70
2017-09-10T20:48:20.833Z,1.23
2017-09-10T20:50:48.906Z,1.80
2017-09-10T20:53:17.128Z,1.30
2017-09-10T20:55:45.052Z,1.60
2017-09-10T20:58:13.123Z,1.60
2017-09-10T21:00:41.200Z,1.37
2017-09-10T21:03:09.268Z,1.23
2017-09-10T21:05:37.340Z,1.40
2017-09-10T21:08:05.411Z,1.00
2017-09-10T21:10:34.102Z,1.40
2017-09-10T21:13:02.174Z,1.10
2017-09-10T21:15:30.244Z,2.00
2017-09-10T21:17:58.933Z,2.07
2017-09-10T21:20:27.005Z,1.57
2017-09-10T21:22:56.000Z,1.33
2017-09-10T21:25:24.072Z,1.20
2017-09-10T21:27:52.145Z,1.20
2017-09-10T21:30:20.217Z,1.60
2017-09-10T21:32:51.524Z,1.20
2017-09-10T21:35:19.434Z,1.37
2017-09-10T21:37:48.428Z,1.20
2017-09-10T21:40:16.503Z,1.47
2017-09-10T21:42:44.575Z,1.07
2017-09-10T21:45:12.647Z,1.80
2017-09-10T21:47:40.724Z,1.17
2017-09-10T21:50:08.792Z,1.50
2017-09-10T21:52:36.865Z,1.43
2017-09-10T21:55:05.023Z,1.30
2017-09-10T21:57:33.010Z,1.13
2017-09-10T22:00:01.081Z,1.50
2017-09-10T22:02:30.674Z,1.40
2017-09-10T22:05:00.950Z,1.57
2017-09-10T22:07:31.238Z,1.23
2017-09-10T22:10:03.094Z,1.20
2017-09-10T22:12:31.582Z,1.07
2017-09-10T22:14:59.656Z,1.23
2017-09-10T22:17:28.636Z,1.30
2017-09-10T22:19:57.642Z,1.20
2017-09-10T22:22:25.715Z,1.23
2017-09-10T22:24:53.788Z,1.27
2017-09-10T22:27:21.861Z,1.20
2017-09-10T22:29:51.754Z,1.33
2017-09-10T22:32:19.848Z,1.43
2017-09-10T22:34:47.924Z,1.30
2017-09-10T22:37:16.608Z,1.10
2017-09-10T22:39:44.680Z,1.07
2017-09-10T22:42:13.674Z,1.10
2017-09-10T22:44:41.748Z,1.47
2017-09-10T22:47:09.821Z,1.10
2017-09-10T22:49:37.895Z,1.10
2017-09-10T22:52:06.274Z,1.20
2017-09-10T22:54:34.960Z,1.10
2017-09-10T22:57:03.032Z,1.10
2017-09-10T22:59:31.105Z,1.07
2017-09-10T23:01:59.178Z,1.33
2017-09-10T23:04:27.251Z,1.17
2017-09-10T23:06:55.322Z,1.00
2017-09-10T23:09:23.396Z,1.43
2017-09-10T23:11:51.468Z,1.27
2017-09-10T23:14:19.539Z,1.43
2017-09-10T23:16:47.616Z,1.03
2017-09-10T23:19:15.685Z,1.00
2017-09-10T23:21:43.760Z,1.20
2017-09-10T23:24:11.830Z,1.30
2017-09-10T23:26:39.906Z,1.40
2017-09-10T23:29:07.976Z,1.47
2017-09-10T23:31:36.049Z,1.10
2017-09-10T23:34:04.121Z,1.00
2017-09-10T23:36:32.196Z,1.97
2017-09-10T23:39:00.269Z,1.03
2017-09-10T23:41:28.339Z,1.00
2017-09-10T23:43:56.413Z,1.33
2017-09-10T23:46:24.486Z,1.40
2017-09-10T23:48:52.557Z,1.13
2017-09-10T23:51:20.628Z,1.10
2017-09-10T23:53:48.707Z,1.33
2017-09-10T23:56:16.776Z,1.00
2017-09-10T23:58:44.846Z,0.80
